createdAt,value
2022-08-18T00:00:23.838Z,0.00
2022-08-18T00:01:23.834Z,0.00
2022-08-18T00:02:28.821Z,0.00
2022-08-18T00:03:53.330Z,0.00
2022-08-18T00:04:36.585Z,0.00
2022-08-18T00:05:24.801Z,0.00
2022-08-18T00:06:23.758Z,0.00
2022-08-18T00:07:23.742Z,0.00
2022-08-18T00:08:23.731Z,0.00
2022-08-18T00:09:23.719Z,0.00
2022-08-18T00:10:23.700Z,0.00
2022-08-18T00:11:23.692Z,0.00
2022-08-18T00:12:23.678Z,0.00
2022-08-18T00:13:23.663Z,0.00
2022-08-18T00:14:23.657Z,0.00
2022-08-18T00:15:23.637Z,0.00
2022-08-18T00:16:23.642Z,0.00
2022-08-18T00:17:23.622Z,0.00
2022-08-18T00:18:23.604Z,0.00
2022-08-18T00:19:45.366Z,0.00
2022-08-18T00:20:24.652Z,0.00
2022-08-18T00:21:23.568Z,0.00
2022-08-18T00:22:23.548Z,0.00
2022-08-18T00:23:23.525Z,0.00
2022-08-18T00:24:23.513Z,0.00
2022-08-18T00:25:23.502Z,0.00
2022-08-18T00:26:23.493Z,0.00
2022-08-18T00:27:23.920Z,0.00
2022-08-18T00:28:23.934Z,0.00
2022-08-18T00:29:23.447Z,0.00
2022-08-18T00:30:23.445Z,0.00
2022-08-18T00:31:23.430Z,0.00
2022-08-18T00:32:23.422Z,0.00
2022-08-18T00:33:23.393Z,0.00
2022-08-18T00:34:23.378Z,0.00
2022-08-18T00:35:23.363Z,0.00
2022-08-18T00:36:23.368Z,0.00
2022-08-18T00:37:23.336Z,0.00
2022-08-18T00:38:25.377Z,0.00
2022-08-18T00:39:23.318Z,0.00
2022-08-18T00:40:23.406Z,0.00
2022-08-18T00:41:23.293Z,0.00
2022-08-18T00:42:28.840Z,0.00
2022-08-18T00:43:24.288Z,0.00
2022-08-18T00:44:23.249Z,0.00
2022-08-18T00:45:23.233Z,0.00
2022-08-18T00:46:23.222Z,0.00
2022-08-18T00:47:33.084Z,0.00
2022-08-18T00:48:24.213Z,0.00
2022-08-18T00:49:23.183Z,0.00
2022-08-18T00:50:23.174Z,0.00
2022-08-18T00:51:23.153Z,0.00
2022-08-18T00:52:23.139Z,0.00
2022-08-18T00:53:23.127Z,0.00
2022-08-18T00:54:23.125Z,0.00
2022-08-18T00:55:23.099Z,0.00
2022-08-18T00:56:23.089Z,0.00
2022-08-18T00:57:23.076Z,0.00
2022-08-18T00:58:23.062Z,0.00
2022-08-18T00:59:23.051Z,0.00
2022-08-18T01:00:23.035Z,0.00
2022-08-18T01:01:23.073Z,0.00
2022-08-18T01:02:23.009Z,0.00
2022-08-18T01:03:24.941Z,0.00
2022-08-18T01:04:22.983Z,0.00
2022-08-18T01:05:22.966Z,0.00
2022-08-18T01:06:22.959Z,0.00
2022-08-18T01:07:22.939Z,0.00
2022-08-18T01:08:29.209Z,0.00
2022-08-18T01:09:23.935Z,0.00
2022-08-18T01:10:22.900Z,0.00
2022-08-18T01:11:22.881Z,0.00
2022-08-18T01:12:44.483Z,0.00
2022-08-18T01:13:23.879Z,0.00
2022-08-18T01:14:22.842Z,0.00
2022-08-18T01:15:28.874Z,0.00
2022-08-18T01:16:23.839Z,0.00
2022-08-18T01:17:22.802Z,0.00
2022-08-18T01:18:22.799Z,0.00
2022-08-18T01:19:22.777Z,0.00
2022-08-18T01:20:22.771Z,0.00
2022-08-18T01:21:22.758Z,0.00
2022-08-18T01:22:22.746Z,0.00
2022-08-18T01:23:22.728Z,0.00
2022-08-18T01:24:22.717Z,0.00
2022-08-18T01:25:23.589Z,0.00
2022-08-18T01:26:22.686Z,0.00
2022-08-18T01:27:22.669Z,0.00
2022-08-18T01:28:22.662Z,0.00
2022-08-18T01:29:22.641Z,0.00
2022-08-18T01:30:22.633Z,0.00
2022-08-18T01:31:22.615Z,0.00
2022-08-18T01:32:22.611Z,0.00
2022-08-18T01:33:22.589Z,0.00
2022-08-18T01:34:23.606Z,0.00
2022-08-18T01:35:22.570Z,0.00
2022-08-18T01:36:22.555Z,0.00
2022-08-18T01:37:22.540Z,0.00
2022-08-18T01:38:22.521Z,0.00
2022-08-18T01:41:17.511Z,0.00
2022-08-18T01:41:22.073Z,0.00
2022-08-18T01:41:30.349Z,0.00
2022-08-18T01:42:23.492Z,0.00
2022-08-18T01:43:22.509Z,0.00
2022-08-18T01:44:22.457Z,0.00
2022-08-18T01:45:22.434Z,0.00
2022-08-18T01:46:22.453Z,0.00
2022-08-18T01:47:22.401Z,0.00
2022-08-18T01:48:22.392Z,0.00
2022-08-18T01:49:22.373Z,0.00
2022-08-18T01:50:22.362Z,0.00
2022-08-18T01:51:38.881Z,0.00
2022-08-18T01:52:23.357Z,0.00
2022-08-18T01:53:22.317Z,0.00
2022-08-18T01:54:22.307Z,0.00
2022-08-18T01:55:22.292Z,0.00
2022-08-18T01:56:22.281Z,0.00
2022-08-18T01:57:22.261Z,0.00
2022-08-18T01:58:22.259Z,0.00
2022-08-18T01:59:22.242Z,0.00
2022-08-18T02:00:22.228Z,0.00
2022-08-18T02:01:22.233Z,0.00
2022-08-18T02:02:23.299Z,0.00
2022-08-18T02:03:22.189Z,0.00
2022-08-18T02:04:37.744Z,0.00
2022-08-18T02:05:23.185Z,0.00
2022-08-18T02:06:32.178Z,0.00
2022-08-18T02:07:23.155Z,0.00
2022-08-18T02:08:23.133Z,0.00
2022-08-18T02:09:23.966Z,0.00
2022-08-18T02:10:22.101Z,0.00
2022-08-18T02:11:22.079Z,0.00
2022-08-18T02:12:22.071Z,0.00
2022-08-18T02:13:22.049Z,0.00
2022-08-18T02:14:25.283Z,0.00
2022-08-18T02:15:22.018Z,0.00
2022-08-18T02:16:22.012Z,0.00
2022-08-18T02:17:21.991Z,0.00
2022-08-18T02:18:32.577Z,0.00
2022-08-18T02:19:23.000Z,0.00
2022-08-18T02:20:21.957Z,0.00
2022-08-18T02:21:21.941Z,0.00
2022-08-18T02:22:21.932Z,0.00
2022-08-18T02:23:21.915Z,0.00
2022-08-18T02:24:21.906Z,0.00
2022-08-18T02:25:21.891Z,0.00
2022-08-18T02:26:21.884Z,0.00
2022-08-18T02:27:21.860Z,0.00
2022-08-18T02:28:21.852Z,0.00
2022-08-18T02:29:21.844Z,0.00
2022-08-18T02:30:21.817Z,0.00
2022-08-18T02:31:21.808Z,0.00
2022-08-18T02:32:21.795Z,0.00
2022-08-18T02:33:21.796Z,0.00
2022-08-18T02:34:21.765Z,0.00
2022-08-18T02:35:21.754Z,0.00
2022-08-18T02:36:21.734Z,0.00
2022-08-18T02:37:21.729Z,0.00
2022-08-18T02:38:21.719Z,0.00
2022-08-18T02:39:21.703Z,0.00
2022-08-18T02:40:21.811Z,0.00
2022-08-18T02:41:21.676Z,0.00
2022-08-18T02:42:21.654Z,0.00
2022-08-18T02:43:21.646Z,0.00
2022-08-18T02:44:21.626Z,0.00
2022-08-18T02:45:21.621Z,0.00
2022-08-18T02:46:21.609Z,0.00
2022-08-18T02:47:21.594Z,0.00
2022-08-18T02:48:21.579Z,0.00
2022-08-18T02:49:21.574Z,0.00
2022-08-18T02:50:21.555Z,0.00
2022-08-18T02:51:21.545Z,0.00
2022-08-18T02:52:21.526Z,0.00
2022-08-18T02:53:21.517Z,0.00
2022-08-18T02:54:21.493Z,0.00
2022-08-18T02:55:21.485Z,0.00
2022-08-18T02:56:40.629Z,0.00
2022-08-18T02:57:22.476Z,0.00
2022-08-18T02:58:21.443Z,0.00
2022-08-18T02:59:21.428Z,0.00
2022-08-18T03:00:21.413Z,0.00
2022-08-18T03:01:21.530Z,0.00
2022-08-18T03:02:21.395Z,0.00
2022-08-18T03:03:21.384Z,0.00
2022-08-18T03:04:25.408Z,0.00
2022-08-18T03:05:22.381Z,0.00
2022-08-18T03:06:21.335Z,0.00
2022-08-18T03:07:21.327Z,0.00
2022-08-18T03:08:21.310Z,0.00
2022-08-18T03:09:21.301Z,0.00
2022-08-18T03:10:32.386Z,0.00
2022-08-18T03:11:22.291Z,0.00
2022-08-18T03:12:21.258Z,0.00
2022-08-18T03:13:21.243Z,0.00
2022-08-18T03:14:21.231Z,0.00
2022-08-18T03:15:21.227Z,0.00
2022-08-18T03:16:21.205Z,0.00
2022-08-18T03:17:21.190Z,0.00
2022-08-18T03:18:21.181Z,0.00
2022-08-18T03:19:21.157Z,0.00
2022-08-18T03:20:30.602Z,0.00
2022-08-18T03:21:22.158Z,0.00
2022-08-18T03:22:28.641Z,0.00
2022-08-18T03:23:30.314Z,0.00
2022-08-18T03:24:22.948Z,0.00
2022-08-18T03:25:21.081Z,0.00
2022-08-18T03:26:21.067Z,0.00
2022-08-18T03:27:21.060Z,0.00
2022-08-18T03:28:21.038Z,0.00
2022-08-18T03:29:21.035Z,0.00
2022-08-18T03:30:21.010Z,0.00
2022-08-18T03:31:20.998Z,0.00
2022-08-18T03:32:20.978Z,0.00
2022-08-18T03:33:20.972Z,0.00
2022-08-18T03:34:20.961Z,0.00
2022-08-18T03:35:20.946Z,0.00
2022-08-18T03:36:20.938Z,0.00
2022-08-18T03:37:20.926Z,0.00
2022-08-18T03:38:20.913Z,0.00
2022-08-18T03:39:20.896Z,0.00
2022-08-18T03:40:20.877Z,0.00
2022-08-18T03:41:43.892Z,0.00
2022-08-18T03:42:21.871Z,0.00
2022-08-18T03:43:23.937Z,0.00
2022-08-18T03:44:21.847Z,0.00
2022-08-18T03:45:20.810Z,0.00
2022-08-18T03:46:20.798Z,0.00
2022-08-18T03:47:20.790Z,0.00
2022-08-18T03:48:20.772Z,0.00
2022-08-18T03:49:20.765Z,0.00
2022-08-18T03:50:20.743Z,0.00
2022-08-18T03:51:20.729Z,0.00
2022-08-18T03:52:20.715Z,0.00
2022-08-18T03:53:20.703Z,0.00
2022-08-18T03:54:20.684Z,0.00
2022-08-18T03:55:20.677Z,0.00
2022-08-18T03:56:20.666Z,0.00
2022-08-18T03:57:20.653Z,0.00
2022-08-18T03:58:20.638Z,0.00
2022-08-18T03:59:20.627Z,0.00
2022-08-18T04:00:20.606Z,0.00
2022-08-18T04:01:26.271Z,0.00
2022-08-18T04:02:21.601Z,0.00
2022-08-18T04:03:20.572Z,0.00
2022-08-18T04:04:20.556Z,0.00
2022-08-18T04:05:20.545Z,0.00
2022-08-18T04:06:29.925Z,0.00
2022-08-18T04:07:21.539Z,0.00
2022-08-18T04:08:20.501Z,0.00
2022-08-18T04:09:20.490Z,0.00
2022-08-18T04:10:20.471Z,0.00
2022-08-18T04:11:20.468Z,0.00
2022-08-18T04:12:20.442Z,0.00
2022-08-18T04:13:20.434Z,0.00
2022-08-18T04:14:20.426Z,0.00
2022-08-18T04:15:20.416Z,0.00
2022-08-18T04:16:20.406Z,0.00
2022-08-18T04:17:20.407Z,0.00
2022-08-18T04:18:20.371Z,0.00
2022-08-18T04:19:27.448Z,0.00
2022-08-18T04:20:21.370Z,0.00
2022-08-18T04:21:20.323Z,5.62
2022-08-18T04:22:20.328Z,5.62
2022-08-18T04:23:20.294Z,5.62
2022-08-18T04:24:20.290Z,5.62
2022-08-18T04:25:20.270Z,5.62
2022-08-18T04:26:20.264Z,5.62
2022-08-18T04:27:20.256Z,11.25
2022-08-18T04:28:20.237Z,11.25
2022-08-18T04:29:20.226Z,11.25
2022-08-18T04:30:20.208Z,11.25
2022-08-18T04:31:20.190Z,16.88
2022-08-18T04:32:20.180Z,16.88
2022-08-18T04:33:20.172Z,16.88
2022-08-18T04:34:20.156Z,16.88
2022-08-18T04:35:20.162Z,22.50
2022-08-18T04:36:20.864Z,22.50
2022-08-18T04:37:20.118Z,22.50
2022-08-18T04:38:20.099Z,28.12
2022-08-18T04:39:20.081Z,28.12
2022-08-18T04:40:24.467Z,28.12
2022-08-18T04:41:20.057Z,28.12
2022-08-18T04:42:20.051Z,33.75
2022-08-18T04:43:20.027Z,33.75
2022-08-18T04:44:20.019Z,39.38
2022-08-18T04:45:20.004Z,39.38
2022-08-18T04:46:20.000Z,45.00
2022-08-18T04:47:19.981Z,45.00
2022-08-18T04:48:19.975Z,50.62
2022-08-18T04:49:19.950Z,50.62
2022-08-18T04:50:19.940Z,56.25
2022-08-18T04:52:37.266Z,61.88
2022-08-18T04:52:38.458Z,56.25
2022-08-18T04:53:20.918Z,56.25
2022-08-18T04:54:19.893Z,56.25
2022-08-18T04:55:19.870Z,56.25
2022-08-18T04:56:19.866Z,56.25
2022-08-18T04:57:19.846Z,56.25
2022-08-18T04:58:19.840Z,56.25
2022-08-18T04:59:19.818Z,56.25
2022-08-18T05:00:19.814Z,56.25
2022-08-18T05:01:19.863Z,56.25
2022-08-18T05:02:19.781Z,61.88
2022-08-18T05:03:19.760Z,61.88
2022-08-18T05:04:19.751Z,61.88
2022-08-18T05:05:19.732Z,61.88
2022-08-18T05:06:19.724Z,67.50
2022-08-18T05:07:19.713Z,73.12
2022-08-18T05:08:19.697Z,73.12
2022-08-18T05:09:22.781Z,78.75
2022-08-18T05:10:19.672Z,78.75
2022-08-18T05:11:19.656Z,78.75
2022-08-18T05:12:20.455Z,84.38
2022-08-18T05:13:20.655Z,84.38
2022-08-18T05:14:19.624Z,90.00
2022-08-18T05:15:19.604Z,95.62
2022-08-18T05:16:27.655Z,101.25
2022-08-18T05:17:20.611Z,112.50
2022-08-18T05:18:19.575Z,118.12
2022-08-18T05:19:19.581Z,118.12
2022-08-18T05:20:19.579Z,118.12
2022-08-18T05:21:19.519Z,118.12
2022-08-18T05:22:19.640Z,123.75
2022-08-18T05:23:20.521Z,123.75
2022-08-18T05:24:19.486Z,123.75
2022-08-18T05:25:19.470Z,123.75
2022-08-18T05:26:19.456Z,123.75
2022-08-18T05:27:19.436Z,118.12
2022-08-18T05:28:19.427Z,106.88
2022-08-18T05:29:19.795Z,101.25
2022-08-18T05:30:19.406Z,101.25
2022-08-18T05:31:19.382Z,101.25
2022-08-18T05:32:42.500Z,101.25
2022-08-18T05:33:20.382Z,101.25
2022-08-18T05:34:19.355Z,101.25
2022-08-18T05:35:19.340Z,95.62
2022-08-18T05:36:19.320Z,101.25
2022-08-18T05:37:19.306Z,106.88
2022-08-18T05:38:19.292Z,106.88
2022-08-18T05:39:19.295Z,106.88
2022-08-18T05:40:19.354Z,106.88
2022-08-18T05:41:19.250Z,112.50
2022-08-18T05:42:19.246Z,112.50
2022-08-18T05:43:19.224Z,112.50
2022-08-18T05:44:19.217Z,112.50
2022-08-18T05:45:19.197Z,118.12
2022-08-18T05:46:19.187Z,112.50
2022-08-18T05:47:19.176Z,112.50
2022-08-18T05:48:19.170Z,112.50
2022-08-18T05:49:19.147Z,118.12
2022-08-18T05:50:19.126Z,112.50
2022-08-18T05:51:19.111Z,118.12
2022-08-18T05:52:19.106Z,118.12
2022-08-18T05:53:20.775Z,118.12
2022-08-18T05:54:19.077Z,123.75
2022-08-18T05:55:19.060Z,123.75
2022-08-18T05:56:19.057Z,123.75
2022-08-18T05:57:19.032Z,129.38
2022-08-18T05:58:19.022Z,129.38
2022-08-18T05:59:19.007Z,135.00
2022-08-18T06:00:18.993Z,135.00
2022-08-18T06:01:18.974Z,140.62
2022-08-18T06:02:18.965Z,140.62
2022-08-18T06:03:19.015Z,146.25
2022-08-18T06:04:18.942Z,146.25
2022-08-18T06:05:18.931Z,151.88
2022-08-18T06:06:18.913Z,157.50
2022-08-18T06:07:18.986Z,157.50
2022-08-18T06:08:18.890Z,157.50
2022-08-18T06:09:18.867Z,157.50
2022-08-18T06:10:18.861Z,157.50
2022-08-18T06:11:22.528Z,151.88
2022-08-18T06:12:18.834Z,151.88
2022-08-18T06:13:18.825Z,146.25
2022-08-18T06:14:18.802Z,140.62
2022-08-18T06:15:18.791Z,140.62
2022-08-18T06:16:18.774Z,140.62
2022-08-18T06:17:18.763Z,146.25
2022-08-18T06:18:18.752Z,157.50
2022-08-18T06:19:18.729Z,174.38
2022-08-18T06:20:18.720Z,180.00
2022-08-18T06:21:18.707Z,185.62
2022-08-18T06:22:18.702Z,191.25
2022-08-18T06:23:18.683Z,196.88
2022-08-18T06:24:18.675Z,196.88
2022-08-18T06:25:18.706Z,196.88
2022-08-18T06:26:18.659Z,202.50
2022-08-18T06:27:18.683Z,202.50
2022-08-18T06:28:18.617Z,202.50
2022-08-18T06:29:18.926Z,196.88
2022-08-18T06:30:18.584Z,196.88
2022-08-18T06:31:18.586Z,196.88
2022-08-18T06:32:18.805Z,196.88
2022-08-18T06:33:18.549Z,191.25
2022-08-18T06:34:18.544Z,191.25
2022-08-18T06:35:18.524Z,191.25
2022-08-18T06:36:19.415Z,191.25
2022-08-18T06:37:18.490Z,196.88
2022-08-18T06:38:18.484Z,196.88
2022-08-18T06:39:18.470Z,202.50
2022-08-18T06:40:18.535Z,202.50
2022-08-18T06:41:40.888Z,208.12
2022-08-18T06:42:19.456Z,208.12
2022-08-18T06:43:18.416Z,213.75
2022-08-18T06:44:18.403Z,219.38
2022-08-18T06:45:18.394Z,225.00
2022-08-18T06:46:18.377Z,230.62
2022-08-18T06:47:18.360Z,236.25
2022-08-18T06:48:18.341Z,241.88
2022-08-18T06:49:18.325Z,241.88
2022-08-18T06:50:18.321Z,247.50
2022-08-18T06:51:18.305Z,247.50
2022-08-18T06:52:18.297Z,253.12
2022-08-18T06:53:26.895Z,253.12
2022-08-18T06:54:19.297Z,253.12
2022-08-18T06:55:18.255Z,253.12
2022-08-18T06:56:26.031Z,247.50
2022-08-18T06:57:19.248Z,236.25
2022-08-18T06:58:18.209Z,225.00
2022-08-18T06:59:18.192Z,208.12
2022-08-18T07:00:18.180Z,202.50
2022-08-18T07:01:18.205Z,180.00
2022-08-18T07:02:18.159Z,163.12
2022-08-18T07:03:18.141Z,146.25
2022-08-18T07:04:18.135Z,129.38
2022-08-18T07:05:18.116Z,123.75
2022-08-18T07:06:18.107Z,118.12
2022-08-18T07:07:18.090Z,112.50
2022-08-18T07:08:18.553Z,106.88
2022-08-18T07:09:18.067Z,101.25
2022-08-18T07:10:18.049Z,101.25
2022-08-18T07:11:18.029Z,101.25
2022-08-18T07:12:18.021Z,101.25
2022-08-18T07:13:18.004Z,101.25
2022-08-18T07:14:17.997Z,101.25
2022-08-18T07:15:17.986Z,101.25
2022-08-18T07:16:26.450Z,112.50
2022-08-18T07:17:18.971Z,123.75
2022-08-18T07:18:17.950Z,146.25
2022-08-18T07:19:17.927Z,174.38
2022-08-18T07:20:17.919Z,202.50
2022-08-18T07:21:17.902Z,225.00
2022-08-18T07:22:17.894Z,241.88
2022-08-18T07:23:17.873Z,247.50
2022-08-18T07:24:25.736Z,247.50
2022-08-18T07:25:18.873Z,241.88
2022-08-18T07:26:17.831Z,225.00
2022-08-18T07:27:17.820Z,202.50
2022-08-18T07:28:17.804Z,185.62
2022-08-18T07:29:17.787Z,185.62
2022-08-18T07:30:17.784Z,196.88
2022-08-18T07:31:17.905Z,196.88
2022-08-18T07:32:21.365Z,185.62
2022-08-18T07:33:17.738Z,168.75
2022-08-18T07:34:17.725Z,151.88
2022-08-18T07:35:17.707Z,140.62
2022-08-18T07:36:17.699Z,140.62
2022-08-18T07:37:17.679Z,157.50
2022-08-18T07:38:40.842Z,174.38
2022-08-18T07:39:18.677Z,191.25
2022-08-18T07:40:17.676Z,196.88
2022-08-18T07:41:17.626Z,208.12
2022-08-18T07:42:37.177Z,208.12
2022-08-18T07:43:18.629Z,202.50
2022-08-18T07:44:17.595Z,196.88
2022-08-18T07:45:17.578Z,185.62
2022-08-18T07:46:18.591Z,180.00
2022-08-18T07:47:17.549Z,180.00
2022-08-18T07:48:43.319Z,185.62
2022-08-18T07:49:21.998Z,180.00
2022-08-18T07:50:36.244Z,174.38
2022-08-18T07:51:18.523Z,174.38
2022-08-18T07:52:35.838Z,180.00
2022-08-18T07:53:18.485Z,191.25
2022-08-18T07:54:47.122Z,196.88
2022-08-18T07:55:18.463Z,202.50
2022-08-18T07:56:17.429Z,202.50
2022-08-18T07:57:20.024Z,202.50
2022-08-18T07:58:17.405Z,202.50
2022-08-18T07:59:17.389Z,208.12
2022-08-18T08:00:18.801Z,225.00
2022-08-18T08:01:17.394Z,247.50
2022-08-18T08:02:17.402Z,275.62
2022-08-18T08:03:17.331Z,315.00
2022-08-18T08:04:25.395Z,354.38
2022-08-18T08:05:18.329Z,382.50
2022-08-18T08:06:17.298Z,410.62
2022-08-18T08:07:25.499Z,438.75
2022-08-18T08:08:19.102Z,461.25
2022-08-18T08:09:18.280Z,450.00
2022-08-18T08:10:17.242Z,427.50
2022-08-18T08:11:17.247Z,416.25
2022-08-18T08:12:17.219Z,427.50
2022-08-18T08:13:36.837Z,427.50
2022-08-18T08:14:20.680Z,444.38
2022-08-18T08:15:18.191Z,472.50
2022-08-18T08:16:18.183Z,489.38
2022-08-18T08:17:17.144Z,472.50
2022-08-18T08:18:17.143Z,528.75
2022-08-18T08:19:17.117Z,500.62
2022-08-18T08:20:17.106Z,556.88
2022-08-18T08:21:17.090Z,540.00
2022-08-18T08:22:17.088Z,596.25
2022-08-18T08:23:17.068Z,618.75
2022-08-18T08:24:17.059Z,506.25
2022-08-18T08:25:44.692Z,483.75
2022-08-18T08:26:18.051Z,658.12
2022-08-18T08:27:17.013Z,708.75
2022-08-18T08:28:17.003Z,1175.62
2022-08-18T08:29:16.990Z,1125.00
2022-08-18T08:30:16.974Z,1271.25
2022-08-18T08:31:36.130Z,1181.25
2022-08-18T08:32:17.968Z,691.88
2022-08-18T08:33:16.930Z,691.88
2022-08-18T08:34:16.915Z,461.25
2022-08-18T08:35:49.274Z,736.88
2022-08-18T08:36:17.913Z,888.75
2022-08-18T08:37:16.879Z,804.38
2022-08-18T08:38:40.118Z,703.12
2022-08-18T08:39:17.880Z,995.62
2022-08-18T08:40:16.925Z,590.62
2022-08-18T08:41:16.832Z,663.75
2022-08-18T08:42:30.155Z,669.38
2022-08-18T08:43:17.831Z,562.50
2022-08-18T08:44:16.789Z,697.50
2022-08-18T08:45:16.778Z,646.88
2022-08-18T08:46:16.760Z,883.12
2022-08-18T08:47:21.790Z,1310.62
2022-08-18T08:48:17.765Z,1833.75
2022-08-18T08:49:16.728Z,1108.12
2022-08-18T08:50:16.708Z,714.38
2022-08-18T08:51:16.703Z,1215.00
2022-08-18T08:52:18.973Z,1192.50
2022-08-18T08:53:16.671Z,2008.12
2022-08-18T08:54:16.651Z,2143.12
2022-08-18T08:55:16.638Z,1940.62
2022-08-18T08:56:16.623Z,1906.88
2022-08-18T08:57:16.615Z,2025.00
2022-08-18T08:58:16.602Z,2036.25
2022-08-18T08:59:16.594Z,2103.75
2022-08-18T09:00:16.579Z,2092.50
2022-08-18T09:01:16.594Z,2041.88
2022-08-18T09:02:37.896Z,2013.75
2022-08-18T09:03:17.558Z,956.25
2022-08-18T09:04:16.522Z,1805.62
2022-08-18T09:05:16.511Z,894.38
2022-08-18T09:06:16.496Z,1839.38
2022-08-18T09:07:16.486Z,1501.88
2022-08-18T09:08:16.467Z,1845.00
2022-08-18T09:09:16.460Z,1608.75
2022-08-18T09:10:16.449Z,1327.50
2022-08-18T09:11:16.439Z,1400.62
2022-08-18T09:12:16.425Z,1485.00
2022-08-18T09:13:16.419Z,1642.50
2022-08-18T09:14:16.401Z,1676.25
2022-08-18T09:15:16.390Z,1788.75
2022-08-18T09:16:16.374Z,2120.62
2022-08-18T09:17:16.365Z,1935.00
2022-08-18T09:18:16.343Z,1743.75
2022-08-18T09:19:16.339Z,1473.75
2022-08-18T09:20:16.388Z,1434.38
2022-08-18T09:21:16.312Z,1265.62
2022-08-18T09:22:16.295Z,1333.12
2022-08-18T09:23:16.286Z,1226.25
2022-08-18T09:24:16.267Z,1597.50
2022-08-18T09:25:16.260Z,1344.38
2022-08-18T09:26:16.254Z,1209.38
2022-08-18T09:27:16.237Z,714.38
2022-08-18T09:28:16.225Z,663.75
2022-08-18T09:29:16.211Z,1096.88
2022-08-18T09:30:16.221Z,1276.88
2022-08-18T09:31:19.523Z,1215.00
2022-08-18T09:32:16.172Z,1096.88
2022-08-18T09:33:18.830Z,1068.75
2022-08-18T09:34:16.142Z,1125.00
2022-08-18T09:35:16.134Z,1158.75
2022-08-18T09:36:20.053Z,1355.62
2022-08-18T09:37:16.259Z,1260.00
2022-08-18T09:38:16.097Z,1293.75
2022-08-18T09:39:16.086Z,1541.25
2022-08-18T09:40:16.239Z,1546.88
2022-08-18T09:41:16.165Z,1344.38
2022-08-18T09:42:16.097Z,1653.75
2022-08-18T09:43:20.089Z,1715.62
2022-08-18T09:44:21.504Z,1935.00
2022-08-18T09:45:17.029Z,1991.25
2022-08-18T09:46:15.995Z,1991.25
2022-08-18T09:47:15.988Z,1957.50
2022-08-18T09:49:16.976Z,1794.38
2022-08-18T09:50:26.659Z,1338.75
2022-08-18T09:51:17.775Z,1147.50
2022-08-18T09:52:15.918Z,1209.38
2022-08-18T09:53:15.905Z,1271.25
2022-08-18T09:55:16.898Z,1608.75
2022-08-18T09:56:19.664Z,1479.38
2022-08-18T09:57:19.295Z,1625.62
2022-08-18T09:58:17.226Z,1957.50
2022-08-18T09:59:15.836Z,1569.38
2022-08-18T10:00:15.820Z,1181.25
2022-08-18T10:01:15.837Z,1181.25
2022-08-18T10:03:16.803Z,1777.50
2022-08-18T10:04:21.429Z,2283.75
2022-08-18T10:05:15.779Z,2188.12
2022-08-18T10:06:15.741Z,2283.75
2022-08-18T10:07:15.730Z,2553.75
2022-08-18T10:08:21.230Z,2362.50
2022-08-18T10:09:26.787Z,2205.00
2022-08-18T10:11:00.464Z,2103.75
2022-08-18T10:11:16.710Z,2188.12
2022-08-18T10:12:16.176Z,2542.50
2022-08-18T10:13:15.660Z,2092.50
2022-08-18T10:14:15.642Z,2413.12
2022-08-18T10:16:16.642Z,2683.12
2022-08-18T10:17:23.977Z,2520.00
2022-08-18T10:18:16.618Z,2362.50
2022-08-18T10:19:15.588Z,2233.12
2022-08-18T10:20:25.992Z,2160.00
2022-08-18T10:21:16.580Z,2340.00
2022-08-18T10:22:15.964Z,2430.00
2022-08-18T10:23:15.540Z,2379.38
2022-08-18T10:24:35.227Z,2340.00
2022-08-18T10:25:23.695Z,2216.25
2022-08-18T10:26:16.520Z,2081.25
2022-08-18T10:27:15.508Z,2109.38
2022-08-18T10:28:15.478Z,2154.38
2022-08-18T10:29:16.007Z,2137.50
2022-08-18T10:30:15.456Z,1901.25
2022-08-18T10:31:15.447Z,1906.88
2022-08-18T10:32:15.433Z,1749.38
2022-08-18T10:34:19.123Z,1001.25
2022-08-18T10:35:15.398Z,703.12
2022-08-18T10:36:15.386Z,646.88
2022-08-18T10:37:17.030Z,663.75
2022-08-18T10:38:16.139Z,635.62
2022-08-18T10:39:15.346Z,646.88
2022-08-18T10:40:15.332Z,613.12
2022-08-18T10:41:16.193Z,579.38
2022-08-18T10:42:15.310Z,534.38
2022-08-18T10:43:34.304Z,551.25
2022-08-18T10:44:28.746Z,590.62
2022-08-18T10:45:24.654Z,663.75
2022-08-18T10:47:16.281Z,731.25
2022-08-18T10:49:17.508Z,691.88
2022-08-18T10:50:15.216Z,691.88
2022-08-18T10:51:15.207Z,669.38
2022-08-18T10:52:16.217Z,511.88
2022-08-18T10:53:39.095Z,455.62
2022-08-18T10:54:18.530Z,433.12
2022-08-18T10:56:16.163Z,450.00
2022-08-18T10:57:16.150Z,455.62
2022-08-18T10:58:15.115Z,461.25
2022-08-18T10:59:16.510Z,495.00
2022-08-18T11:00:15.583Z,534.38
2022-08-18T11:01:15.078Z,528.75
2022-08-18T11:02:15.065Z,511.88
2022-08-18T11:03:42.660Z,511.88
2022-08-18T11:04:33.160Z,551.25
2022-08-18T11:05:16.052Z,618.75
2022-08-18T11:07:18.117Z,703.12
2022-08-18T11:08:15.962Z,736.88
2022-08-18T11:09:14.984Z,781.88
2022-08-18T11:10:29.492Z,804.38
2022-08-18T11:11:33.562Z,821.25
2022-08-18T11:12:15.958Z,883.12
2022-08-18T11:13:14.927Z,973.12
2022-08-18T11:14:14.912Z,804.38
2022-08-18T11:15:22.047Z,697.50
2022-08-18T11:16:15.914Z,697.50
2022-08-18T11:17:15.996Z,675.00
2022-08-18T11:18:14.860Z,714.38
2022-08-18T11:19:14.851Z,753.75
2022-08-18T11:20:14.834Z,781.88
2022-08-18T11:21:14.826Z,798.75
2022-08-18T11:22:16.361Z,798.75
2022-08-18T11:23:15.817Z,804.38
2022-08-18T11:24:14.782Z,753.75
2022-08-18T11:25:14.772Z,618.75
2022-08-18T11:26:14.762Z,579.38
2022-08-18T11:27:15.712Z,748.12
2022-08-18T11:28:14.735Z,798.75
2022-08-18T11:29:14.726Z,821.25
2022-08-18T11:30:14.707Z,860.62
2022-08-18T11:31:14.701Z,871.88
2022-08-18T11:32:14.683Z,826.88
2022-08-18T11:33:14.674Z,821.25
2022-08-18T11:34:19.733Z,832.50
2022-08-18T11:35:14.642Z,894.38
2022-08-18T11:36:14.626Z,956.25
2022-08-18T11:37:14.619Z,1012.50
2022-08-18T11:39:15.613Z,956.25
2022-08-18T11:40:22.453Z,905.62
2022-08-18T11:41:17.350Z,995.62
2022-08-18T11:42:16.013Z,1085.62
2022-08-18T11:43:15.582Z,961.88
2022-08-18T11:44:14.531Z,1012.50
2022-08-18T11:45:14.525Z,1141.88
2022-08-18T11:46:14.507Z,1305.00
2022-08-18T11:47:14.497Z,1321.88
2022-08-18T11:48:14.516Z,1141.88
2022-08-18T11:49:15.657Z,759.38
2022-08-18T11:50:14.457Z,697.50
2022-08-18T11:51:14.442Z,669.38
2022-08-18T11:52:14.429Z,1012.50
2022-08-18T11:53:14.418Z,736.88
2022-08-18T11:54:14.399Z,562.50
2022-08-18T11:55:16.817Z,483.75
2022-08-18T11:56:15.404Z,466.88
2022-08-18T11:57:14.367Z,466.88
2022-08-18T11:58:14.347Z,450.00
2022-08-18T11:59:14.345Z,438.75
2022-08-18T12:00:23.960Z,416.25
2022-08-18T12:01:15.338Z,399.38
2022-08-18T12:02:14.297Z,399.38
2022-08-18T12:03:14.284Z,421.88
2022-08-18T12:04:14.270Z,461.25
2022-08-18T12:05:14.260Z,483.75
2022-08-18T12:06:19.121Z,523.12
2022-08-18T12:07:14.289Z,551.25
2022-08-18T12:09:20.004Z,748.12
2022-08-18T12:10:16.236Z,1057.50
2022-08-18T12:11:26.559Z,337.50
2022-08-18T12:12:15.203Z,303.75
2022-08-18T12:13:14.160Z,281.25
2022-08-18T12:15:23.977Z,236.25
2022-08-18T12:16:15.139Z,241.88
2022-08-18T12:17:14.272Z,258.75
2022-08-18T12:18:19.003Z,258.75
2022-08-18T12:19:15.120Z,236.25
2022-08-18T12:20:14.070Z,208.12
2022-08-18T12:21:14.108Z,185.62
2022-08-18T12:22:14.040Z,185.62
2022-08-18T12:23:14.029Z,196.88
2022-08-18T12:24:14.009Z,180.00
2022-08-18T12:25:14.002Z,146.25
2022-08-18T12:26:26.895Z,146.25
2022-08-18T12:27:21.234Z,146.25
2022-08-18T12:28:14.994Z,151.88
2022-08-18T12:29:13.952Z,157.50
2022-08-18T12:30:16.616Z,151.88
2022-08-18T12:31:15.031Z,151.88
2022-08-18T12:32:18.244Z,140.62
2022-08-18T12:33:15.030Z,129.38
2022-08-18T12:34:13.888Z,106.88
2022-08-18T12:35:13.882Z,90.00
2022-08-18T12:36:15.687Z,78.75
2022-08-18T12:37:42.783Z,78.75
2022-08-18T12:38:14.853Z,84.38
2022-08-18T12:39:13.820Z,90.00
2022-08-18T12:40:13.871Z,90.00
2022-08-18T12:41:13.802Z,95.62
2022-08-18T12:42:13.777Z,112.50
2022-08-18T12:43:13.769Z,135.00
2022-08-18T12:44:13.752Z,157.50
2022-08-18T12:45:13.742Z,174.38
2022-08-18T12:46:13.728Z,185.62
2022-08-18T12:47:13.721Z,191.25
2022-08-18T12:48:13.707Z,196.88
2022-08-18T12:49:13.698Z,196.88
2022-08-18T12:50:13.678Z,191.25
2022-08-18T12:51:14.245Z,202.50
2022-08-18T12:52:14.175Z,219.38
2022-08-18T12:53:13.634Z,236.25
2022-08-18T12:54:13.620Z,264.38
2022-08-18T12:55:22.225Z,298.12